sensor_id;sensor_type;location;lat;lon;timestamp;pressure;altitude;pressure_sealevel;temperature;humidity
10946;BME280;5525;42.648;23.368;2022-07-29T00:08:35;94829.50;;;18.73;100.00
10946;BME280;5525;42.648;23.368;2022-07-29T00:11:02;94836.09;;;18.69;100.00
10946;BME280;5525;42.648;23.368;2022-07-29T00:13:29;94852.78;;;18.60;100.00
10946;BME280;5525;42.648;23.368;2022-07-29T00:15:56;94822.94;;;18.48;100.00
10946;BME280;5525;42.648;23.368;2022-07-29T01:08:42;94834.66;;;18.26;100.00
10946;BME280;5525;42.648;23.368;2022-07-29T01:11:09;94843.75;;;18.33;100.00
10946;BME280;5525;42.648;23.368;2022-07-29T01:13:37;94842.31;;;18.39;100.00
10946;BME280;5525;42.648;23.368;2022-07-29T01:16:10;94841.47;;;18.35;100.00
10946;BME280;5525;42.648;23.368;2022-07-29T01:18:43;94842.22;;;18.36;100.00
10946;BME280;5525;42.648;23.368;2022-07-29T01:21:35;94842.97;;;18.33;100.00
10946;BME280;5525;42.648;23.368;2022-07-29T01:24:29;94840.38;;;18.40;100.00
10946;BME280;5525;42.648;23.368;2022-07-29T01:26:59;94804.59;;;18.26;100.00
10946;BME280;5525;42.648;23.368;2022-07-29T01:29:34;94840.59;;;18.54;100.00
10946;BME280;5525;42.648;23.368;2022-07-29T01:32:07;94818.88;;;18.38;100.00
10946;BME280;5525;42.648;23.368;2022-07-29T01:34:41;94835.75;;;18.44;100.00
10946;BME280;5525;42.648;23.368;2022-07-29T01:37:18;94840.06;;;18.45;100.00
10946;BME280;5525;42.648;23.368;2022-07-29T01:39:46;94834.59;;;18.45;100.00
10946;BME280;5525;42.648;23.368;2022-07-29T01:42:17;94818.34;;;18.33;100.00
10946;BME280;5525;42.648;23.368;2022-07-29T01:44:54;94824.47;;;18.23;100.00
10946;BME280;5525;42.648;23.368;2022-07-29T01:47:26;94807.50;;;18.10;100.00
10946;BME280;5525;42.648;23.368;2022-07-29T01:49:59;94819.81;;;18.23;100.00
10946;BME280;5525;42.648;23.368;2022-07-29T01:52:31;94824.53;;;18.26;100.00
10946;BME280;5525;42.648;23.368;2022-07-29T01:55:06;94826.47;;;18.26;100.00
10946;BME280;5525;42.648;23.368;2022-07-29T01:57:35;94827.50;;;18.18;100.00
10946;BME280;5525;42.648;23.368;2022-07-29T02:00:07;94821.00;;;18.00;100.00
10946;BME280;5525;42.648;23.368;2022-07-29T02:02:35;94827.91;;;17.94;100.00
10946;BME280;5525;42.648;23.368;2022-07-29T02:05:06;94816.25;;;17.97;100.00
10946;BME280;5525;42.648;23.368;2022-07-29T02:07:34;94822.94;;;17.99;100.00
10946;BME280;5525;42.648;23.368;2022-07-29T02:10:05;94810.13;;;18.03;100.00
10946;BME280;5525;42.648;23.368;2022-07-29T02:12:35;94809.78;;;18.08;100.00
10946;BME280;5525;42.648;23.368;2022-07-29T02:15:04;94809.47;;;18.13;100.00
10946;BME280;5525;42.648;23.368;2022-07-29T02:17:39;94789.81;;;18.04;100.00
10946;BME280;5525;42.648;23.368;2022-07-29T02:20:09;94795.72;;;18.06;100.00
10946;BME280;5525;42.648;23.368;2022-07-29T02:22:38;94796.19;;;18.12;100.00
10946;BME280;5525;42.648;23.368;2022-07-29T02:25:07;94762.28;;;17.90;100.00
10946;BME280;5525;42.648;23.368;2022-07-29T02:27:35;94796.47;;;17.81;100.00
10946;BME280;5525;42.648;23.368;2022-07-29T02:30:06;94810.66;;;17.90;100.00
10946;BME280;5525;42.648;23.368;2022-07-29T02:32:37;94798.00;;;17.78;100.00
10946;BME280;5525;42.648;23.368;2022-07-29T02:35:07;94804.00;;;17.87;100.00
10946;BME280;5525;42.648;23.368;2022-07-29T02:37:35;94807.91;;;17.86;100.00
10946;BME280;5525;42.648;23.368;2022-07-29T02:40:04;94795.44;;;17.89;100.00
10946;BME280;5525;42.648;23.368;2022-07-29T02:42:33;94788.44;;;17.91;100.00
10946;BME280;5525;42.648;23.368;2022-07-29T02:45:02;94790.56;;;18.01;100.00
10946;BME280;5525;42.648;23.368;2022-07-29T02:47:36;94781.63;;;18.04;100.00
10946;BME280;5525;42.648;23.368;2022-07-29T02:50:07;94765.59;;;18.03;100.00
10946;BME280;5525;42.648;23.368;2022-07-29T02:52:39;94779.88;;;18.19;100.00
10946;BME280;5525;42.648;23.368;2022-07-29T02:55:14;94724.63;;;17.77;100.00
10946;BME280;5525;42.648;23.368;2022-07-29T02:57:44;94773.06;;;18.06;100.00
10946;BME280;5525;42.648;23.368;2022-07-29T03:00:14;94770.34;;;18.06;100.00
10946;BME280;5525;42.648;23.368;2022-07-29T03:02:45;94776.75;;;18.17;100.00
10946;BME280;5525;42.648;23.368;2022-07-29T03:05:16;94797.94;;;18.23;100.00
10946;BME280;5525;42.648;23.368;2022-07-29T03:07:46;94782.25;;;18.20;100.00
10946;BME280;5525;42.648;23.368;2022-07-29T03:10:14;94780.69;;;18.19;100.00
10946;BME280;5525;42.648;23.368;2022-07-29T03:12:41;94777.50;;;18.14;100.00
10946;BME280;5525;42.648;23.368;2022-07-29T03:15:09;94789.53;;;18.09;100.00
10946;BME280;5525;42.648;23.368;2022-07-29T03:17:37;94771.31;;;17.94;100.00
10946;BME280;5525;42.648;23.368;2022-07-29T03:20:07;94782.66;;;17.96;100.00
10946;BME280;5525;42.648;23.368;2022-07-29T03:22:38;94746.34;;;17.70;100.00
10946;BME280;5525;42.648;23.368;2022-07-29T03:25:09;94789.25;;;17.92;100.00
10946;BME280;5525;42.648;23.368;2022-07-29T03:27:36;94787.34;;;17.96;100.00
10946;BME280;5525;42.648;23.368;2022-07-29T03:30:04;94774.09;;;17.72;100.00
10946;BME280;5525;42.648;23.368;2022-07-29T03:32:31;94798.84;;;17.82;100.00
10946;BME280;5525;42.648;23.368;2022-07-29T03:34:58;94801.94;;;17.81;100.00
10946;BME280;5525;42.648;23.368;2022-07-29T03:37:26;94796.44;;;17.77;100.00
10946;BME280;5525;42.648;23.368;2022-07-29T03:39:55;94800.47;;;17.87;100.00
10946;BME280;5525;42.648;23.368;2022-07-29T03:42:25;94800.00;;;17.81;100.00
10946;BME280;5525;42.648;23.368;2022-07-29T03:44:54;94799.63;;;17.83;100.00
10946;BME280;5525;42.648;23.368;2022-07-29T03:47:25;94806.00;;;17.90;100.00
10946;BME280;5525;42.648;23.368;2022-07-29T03:49:59;94784.56;;;17.70;100.00
10946;BME280;5525;42.648;23.368;2022-07-29T03:52:28;94805.94;;;17.87;100.00
10946;BME280;5525;42.648;23.368;2022-07-29T03:54:54;94807.41;;;17.81;100.00
10946;BME280;5525;42.648;23.368;2022-07-29T03:57:25;94808.25;;;17.85;100.00
10946;BME280;5525;42.648;23.368;2022-07-29T03:59:54;94813.47;;;17.93;100.00
10946;BME280;5525;42.648;23.368;2022-07-29T04:02:21;94812.06;;;18.03;100.00
10946;BME280;5525;42.648;23.368;2022-07-29T04:04:50;94820.03;;;18.15;100.00
10946;BME280;5525;42.648;23.368;2022-07-29T04:07:17;94819.06;;;18.26;100.00
10946;BME280;5525;42.648;23.368;2022-07-29T04:09:45;94812.66;;;18.41;100.00
10946;BME280;5525;42.648;23.368;2022-07-29T04:12:11;94803.19;;;18.91;100.00
10946;BME280;5525;42.648;23.368;2022-07-29T04:14:38;94813.69;;;19.59;100.00
10946;BME280;5525;42.648;23.368;2022-07-29T04:17:06;94789.50;;;20.11;100.00
10946;BME280;5525;42.648;23.368;2022-07-29T04:19:33;94813.44;;;20.79;100.00
10946;BME280;5525;42.648;23.368;2022-07-29T04:22:01;94809.41;;;21.38;100.00
10946;BME280;5525;42.648;23.368;2022-07-29T04:24:28;94804.31;;;21.40;100.00
10946;BME280;5525;42.648;23.368;2022-07-29T04:26:57;94800.59;;;20.94;100.00
10946;BME280;5525;42.648;23.368;2022-07-29T04:29:24;94802.91;;;20.24;100.00
10946;BME280;5525;42.648;23.368;2022-07-29T04:31:51;94799.88;;;19.88;100.00
10946;BME280;5525;42.648;23.368;2022-07-29T04:34:17;94778.09;;;20.64;100.00
10946;BME280;5525;42.648;23.368;2022-07-29T04:36:44;94802.47;;;22.00;100.00
10946;BME280;5525;42.648;23.368;2022-07-29T04:39:11;94821.66;;;22.81;100.00
10946;BME280;5525;42.648;23.368;2022-07-29T04:41:38;94821.53;;;23.95;98.90
10946;BME280;5525;42.648;23.368;2022-07-29T04:44:06;94805.41;;;24.85;87.27
10946;BME280;5525;42.648;23.368;2022-07-29T04:46:33;94817.63;;;25.55;77.12
10946;BME280;5525;42.648;23.368;2022-07-29T04:49:00;94803.75;;;26.15;69.63
10946;BME280;5525;42.648;23.368;2022-07-29T04:51:28;94826.69;;;26.62;64.94
10946;BME280;5525;42.648;23.368;2022-07-29T04:53:54;94822.16;;;26.95;62.70
10946;BME280;5525;42.648;23.368;2022-07-29T04:56:21;94808.13;;;27.64;58.73
10946;BME280;5525;42.648;23.368;2022-07-29T04:58:48;94817.69;;;28.15;55.42
10946;BME280;5525;42.648;23.368;2022-07-29T05:01:17;94827.72;;;29.49;49.61
10946;BME280;5525;42.648;23.368;2022-07-29T05:03:44;94833.81;;;30.39;46.89
10946;BME280;5525;42.648;23.368;2022-07-29T05:06:11;94828.88;;;30.56;45.23
10946;BME280;5525;42.648;23.368;2022-07-29T05:08:39;94841.63;;;31.03;44.17
10946;BME280;5525;42.648;23.368;2022-07-29T05:11:06;94842.47;;;30.79;43.90
10946;BME280;5525;42.648;23.368;2022-07-29T05:13:32;94835.66;;;30.80;44.16
10946;BME280;5525;42.648;23.368;2022-07-29T05:15:59;94834.16;;;31.00;43.94
10946;BME280;5525;42.648;23.368;2022-07-29T05:18:28;94842.63;;;31.44;42.86
10946;BME280;5525;42.648;23.368;2022-07-29T05:20:55;94835.91;;;31.54;42.37
10946;BME280;5525;42.648;23.368;2022-07-29T05:23:22;94850.50;;;31.79;41.53
10946;BME280;5525;42.648;23.368;2022-07-29T05:25:49;94842.31;;;32.77;38.96
10946;BME280;5525;42.648;23.368;2022-07-29T05:28:16;94826.78;;;32.85;37.71
10946;BME280;5525;42.648;23.368;2022-07-29T05:30:43;94856.59;;;33.81;36.85
10946;BME280;5525;42.648;23.368;2022-07-29T05:33:10;94861.84;;;34.66;35.55
10946;BME280;5525;42.648;23.368;2022-07-29T05:35:39;94847.59;;;34.88;34.38
10946;BME280;5525;42.648;23.368;2022-07-29T05:38:05;94850.72;;;35.13;33.31
10946;BME280;5525;42.648;23.368;2022-07-29T05:40:32;94854.13;;;35.17;33.38
10946;BME280;5525;42.648;23.368;2022-07-29T05:42:59;94853.06;;;35.38;33.28
10946;BME280;5525;42.648;23.368;2022-07-29T05:45:26;94857.34;;;35.48;32.76
10946;BME280;5525;42.648;23.368;2022-07-29T05:47:53;94856.63;;;35.77;32.60
10946;BME280;5525;42.648;23.368;2022-07-29T05:50:19;94863.50;;;36.29;30.66
10946;BME280;5525;42.648;23.368;2022-07-29T05:52:47;94868.13;;;36.90;30.38
10946;BME280;5525;42.648;23.368;2022-07-29T05:55:14;94857.97;;;36.20;30.34
10946;BME280;5525;42.648;23.368;2022-07-29T05:57:42;94862.34;;;37.13;29.09
10946;BME280;5525;42.648;23.368;2022-07-29T06:00:11;94855.88;;;37.48;28.87
10946;BME280;5525;42.648;23.368;2022-07-29T06:02:38;94869.19;;;36.92;29.45
10946;BME280;5525;42.648;23.368;2022-07-29T06:05:06;94850.81;;;36.33;30.10
10946;BME280;5525;42.648;23.368;2022-07-29T06:07:34;94875.53;;;37.62;28.64
10946;BME280;5525;42.648;23.368;2022-07-29T06:10:03;94879.44;;;38.87;27.42
10946;BME280;5525;42.648;23.368;2022-07-29T06:12:29;94863.44;;;38.78;26.83
10946;BME280;5525;42.648;23.368;2022-07-29T06:14:56;94866.03;;;39.13;26.14
10946;BME280;5525;42.648;23.368;2022-07-29T06:17:23;94882.03;;;39.75;25.79
10946;BME280;5525;42.648;23.368;2022-07-29T06:19:50;94873.81;;;39.29;25.89
10946;BME280;5525;42.648;23.368;2022-07-29T06:22:17;94862.31;;;38.65;26.93
10946;BME280;5525;42.648;23.368;2022-07-29T06:24:44;94844.47;;;38.85;26.91
10946;BME280;5525;42.648;23.368;2022-07-29T06:27:13;94865.81;;;39.22;26.80
10946;BME280;5525;42.648;23.368;2022-07-29T06:29:40;94877.41;;;39.72;25.74
10946;BME280;5525;42.648;23.368;2022-07-29T06:32:07;94877.59;;;40.33;25.24
10946;BME280;5525;42.648;23.368;2022-07-29T06:34:34;94879.22;;;41.11;24.67
10946;BME280;5525;42.648;23.368;2022-07-29T06:37:05;94851.16;;;40.85;24.75
10946;BME280;5525;42.648;23.368;2022-07-29T06:39:33;94842.25;;;39.89;25.85
10946;BME280;5525;42.648;23.368;2022-07-29T06:42:00;94876.09;;;40.65;25.22
10946;BME280;5525;42.648;23.368;2022-07-29T06:44:29;94848.31;;;40.85;24.72
10946;BME280;5525;42.648;23.368;2022-07-29T06:46:56;94866.84;;;39.67;25.36
10946;BME280;5525;42.648;23.368;2022-07-29T06:49:23;94860.59;;;39.10;26.45
10946;BME280;5525;42.648;23.368;2022-07-29T06:51:51;94867.47;;;38.72;26.87
10946;BME280;5525;42.648;23.368;2022-07-29T06:54:18;94852.59;;;39.45;26.36
10946;BME280;5525;42.648;23.368;2022-07-29T06:56:45;94864.75;;;39.62;26.43
10946;BME280;5525;42.648;23.368;2022-07-29T06:59:12;94865.00;;;40.61;25.07
10946;BME280;5525;42.648;23.368;2022-07-29T07:01:42;94860.16;;;40.95;24.80
10946;BME280;5525;42.648;23.368;2022-07-29T07:04:09;94814.25;;;41.07;24.13
10946;BME280;5525;42.648;23.368;2022-07-29T07:06:37;94854.09;;;40.04;25.64
10946;BME280;5525;42.648;23.368;2022-07-29T07:09:05;94842.91;;;40.49;24.67
10946;BME280;5525;42.648;23.368;2022-07-29T07:11:35;94848.56;;;40.82;24.18
10946;BME280;5525;42.648;23.368;2022-07-29T07:14:03;94839.00;;;41.07;24.07
10946;BME280;5525;42.648;23.368;2022-07-29T07:16:30;94815.06;;;40.31;24.22
10946;BME280;5525;42.648;23.368;2022-07-29T07:19:01;94833.31;;;41.97;22.98
10946;BME280;5525;42.648;23.368;2022-07-29T07:21:30;94854.94;;;42.87;21.94
10946;BME280;5525;42.648;23.368;2022-07-29T07:23:57;94844.13;;;42.80;21.56
10946;BME280;5525;42.648;23.368;2022-07-29T07:26:24;94854.75;;;43.57;20.42
10946;BME280;5525;42.648;23.368;2022-07-29T07:28:52;94848.47;;;42.11;21.78
10946;BME280;5525;42.648;23.368;2022-07-29T07:31:19;94844.97;;;41.09;23.24
10946;BME280;5525;42.648;23.368;2022-07-29T07:33:50;94855.41;;;42.91;21.43
10946;BME280;5525;42.648;23.368;2022-07-29T07:36:24;94834.91;;;41.82;22.43
10946;BME280;5525;42.648;23.368;2022-07-29T07:38:53;94791.69;;;41.64;22.49
10946;BME280;5525;42.648;23.368;2022-07-29T07:41:20;94844.13;;;41.25;22.64
10946;BME280;5525;42.648;23.368;2022-07-29T07:43:48;94842.63;;;41.87;22.58
10946;BME280;5525;42.648;23.368;2022-07-29T07:46:15;94836.66;;;42.42;21.66
10946;BME280;5525;42.648;23.368;2022-07-29T07:48:42;94846.22;;;44.00;20.11
10946;BME280;5525;42.648;23.368;2022-07-29T07:51:09;94829.28;;;43.22;20.60
10946;BME280;5525;42.648;23.368;2022-07-29T07:53:38;94838.47;;;43.58;20.03
10946;BME280;5525;42.648;23.368;2022-07-29T07:56:05;94839.50;;;43.79;20.14
10946;BME280;5525;42.648;23.368;2022-07-29T07:58:32;94838.53;;;43.95;20.06
10946;BME280;5525;42.648;23.368;2022-07-29T08:01:00;94841.56;;;43.06;20.75
10946;BME280;5525;42.648;23.368;2022-07-29T08:03:27;94842.28;;;44.21;19.12
10946;BME280;5525;42.648;23.368;2022-07-29T08:05:56;94841.28;;;44.75;19.51
10946;BME280;5525;42.648;23.368;2022-07-29T08:08:23;94840.28;;;43.55;19.61
10946;BME280;5525;42.648;23.368;2022-07-29T08:10:51;94847.22;;;44.90;18.77
10946;BME280;5525;42.648;23.368;2022-07-29T08:13:19;94840.53;;;44.37;18.98
10946;BME280;5525;42.648;23.368;2022-07-29T08:15:47;94839.66;;;46.02;18.16
10946;BME280;5525;42.648;23.368;2022-07-29T08:18:25;94846.91;;;47.24;16.65
10946;BME280;5525;42.648;23.368;2022-07-29T08:20:55;94840.09;;;46.40;17.10
10946;BME280;5525;42.648;23.368;2022-07-29T08:23:23;94835.66;;;44.50;18.74
10946;BME280;5525;42.648;23.368;2022-07-29T08:25:53;94808.84;;;44.91;17.58
10946;BME280;5525;42.648;23.368;2022-07-29T08:28:20;94818.00;;;44.02;18.69
10946;BME280;5525;42.648;23.368;2022-07-29T08:30:47;94830.41;;;43.80;18.92
10946;BME280;5525;42.648;23.368;2022-07-29T08:33:14;94820.34;;;44.85;18.56
10946;BME280;5525;42.648;23.368;2022-07-29T08:35:40;94826.41;;;44.95;17.69
10946;BME280;5525;42.648;23.368;2022-07-29T08:38:08;94807.97;;;45.40;17.30
10946;BME280;5525;42.648;23.368;2022-07-29T08:40:37;94819.78;;;45.31;17.20
10946;BME280;5525;42.648;23.368;2022-07-29T08:43:05;94824.25;;;46.18;16.64
10946;BME280;5525;42.648;23.368;2022-07-29T08:45:41;94831.22;;;46.97;16.09
10946;BME280;5525;42.648;23.368;2022-07-29T08:48:09;94825.44;;;46.90;15.67
10946;BME280;5525;42.648;23.368;2022-07-29T08:50:38;94831.63;;;47.22;15.94
10946;BME280;5525;42.648;23.368;2022-07-29T08:53:07;94821.88;;;47.74;15.04
10946;BME280;5525;42.648;23.368;2022-07-29T08:55:38;94824.00;;;46.63;15.99
10946;BME280;5525;42.648;23.368;2022-07-29T08:58:09;94809.84;;;46.57;15.61
10946;BME280;5525;42.648;23.368;2022-07-29T09:00:37;94818.28;;;47.81;15.12
10946;BME280;5525;42.648;23.368;2022-07-29T09:03:09;94817.56;;;49.42;13.57
10946;BME280;5525;42.648;23.368;2022-07-29T09:05:39;94808.91;;;48.08;14.46
10946;BME280;5525;42.648;23.368;2022-07-29T09:08:08;94801.22;;;46.91;15.30
10946;BME280;5525;42.648;23.368;2022-07-29T09:10:39;94815.41;;;46.96;15.13
10946;BME280;5525;42.648;23.368;2022-07-29T09:13:08;94803.59;;;46.25;15.52
10946;BME280;5525;42.648;23.368;2022-07-29T09:15:35;94796.84;;;42.47;18.84
10946;BME280;5525;42.648;23.368;2022-07-29T09:18:01;94780.13;;;39.42;21.61
10946;BME280;5525;42.648;23.368;2022-07-29T09:20:28;94783.84;;;38.43;23.35
10946;BME280;5525;42.648;23.368;2022-07-29T09:23:15;94781.81;;;37.87;23.77
10946;BME280;5525;42.648;23.368;2022-07-29T09:25:42;94775.66;;;37.43;24.18
10946;BME280;5525;42.648;23.368;2022-07-29T09:28:12;94786.41;;;36.35;25.32
10946;BME280;5525;42.648;23.368;2022-07-29T09:30:50;94761.88;;;35.25;26.73
10946;BME280;5525;42.648;23.368;2022-07-29T09:33:20;94769.22;;;34.75;27.70
10946;BME280;5525;42.648;23.368;2022-07-29T09:35:58;94770.31;;;36.07;26.58
10946;BME280;5525;42.648;23.368;2022-07-29T09:38:26;94723.75;;;40.30;21.84
10946;BME280;5525;42.648;23.368;2022-07-29T09:40:56;94758.84;;;42.85;19.51
10946;BME280;5525;42.648;23.368;2022-07-29T09:43:24;94765.34;;;44.58;17.97
10946;BME280;5525;42.648;23.368;2022-07-29T09:45:51;94793.72;;;44.83;17.22
10946;BME280;5525;42.648;23.368;2022-07-29T09:48:20;94789.53;;;45.80;16.94
10946;BME280;5525;42.648;23.368;2022-07-29T09:50:49;94790.13;;;47.08;16.28
10946;BME280;5525;42.648;23.368;2022-07-29T09:53:30;94780.84;;;45.34;17.54
10946;BME280;5525;42.648;23.368;2022-07-29T09:55:58;94749.31;;;42.18;19.85
10946;BME280;5525;42.648;23.368;2022-07-29T09:58:26;94755.13;;;40.32;22.21
10946;BME280;5525;42.648;23.368;2022-07-29T10:00:54;94763.38;;;40.47;21.84
10946;BME280;5525;42.648;23.368;2022-07-29T10:03:22;94770.69;;;43.38;19.11
10946;BME280;5525;42.648;23.368;2022-07-29T10:06:05;94762.97;;;43.33;19.08
10946;BME280;5525;42.648;23.368;2022-07-29T10:08:32;94746.59;;;43.20;19.15
10946;BME280;5525;42.648;23.368;2022-07-29T10:11:09;94755.00;;;46.79;16.36
10946;BME280;5525;42.648;23.368;2022-07-29T10:13:38;94754.00;;;45.42;16.98
10946;BME280;5525;42.648;23.368;2022-07-29T10:16:06;94739.00;;;41.28;20.47
10946;BME280;5525;42.648;23.368;2022-07-29T10:18:33;94707.00;;;39.02;22.83
10946;BME280;5525;42.648;23.368;2022-07-29T10:21:01;94736.81;;;37.27;25.52
10946;BME280;5525;42.648;23.368;2022-07-29T10:23:28;94728.63;;;35.91;27.08
10946;BME280;5525;42.648;23.368;2022-07-29T10:25:56;94718.22;;;37.86;25.14
10946;BME280;5525;42.648;23.368;2022-07-29T10:28:25;94728.31;;;40.88;22.03
10946;BME280;5525;42.648;23.368;2022-07-29T10:31:00;94721.16;;;40.21;22.52
10946;BME280;5525;42.648;23.368;2022-07-29T10:33:43;94727.34;;;41.95;20.87
10946;BME280;5525;42.648;23.368;2022-07-29T10:36:23;94708.56;;;43.23;19.32
10946;BME280;5525;42.648;23.368;2022-07-29T10:39:00;94728.47;;;43.23;19.61
10946;BME280;5525;42.648;23.368;2022-07-29T10:41:56;94725.47;;;45.16;18.15
10946;BME280;5525;42.648;23.368;2022-07-29T10:44:26;94732.53;;;46.42;16.55
10946;BME280;5525;42.648;23.368;2022-07-29T10:46:55;94732.53;;;47.04;15.26
10946;BME280;5525;42.648;23.368;2022-07-29T10:49:23;94727.38;;;46.82;15.70
10946;BME280;5525;42.648;23.368;2022-07-29T10:51:58;94703.34;;;46.57;15.92
10946;BME280;5525;42.648;23.368;2022-07-29T10:54:42;94714.44;;;47.80;14.76
10946;BME280;5525;42.648;23.368;2022-07-29T10:57:14;94708.34;;;45.42;16.12
10946;BME280;5525;42.648;23.368;2022-07-29T10:59:43;94687.13;;;43.41;18.03
10946;BME280;5525;42.648;23.368;2022-07-29T11:02:45;94686.16;;;42.71;18.23
10946;BME280;5525;42.648;23.368;2022-07-29T11:05:17;94675.84;;;42.09;19.08
10946;BME280;5525;42.648;23.368;2022-07-29T11:08:21;94676.63;;;42.10;18.73
10946;BME280;5525;42.648;23.368;2022-07-29T11:10:50;94664.22;;;41.78;19.35
10946;BME280;5525;42.648;23.368;2022-07-29T11:13:48;94685.59;;;43.40;18.49
10946;BME280;5525;42.648;23.368;2022-07-29T11:16:21;94685.34;;;44.43;17.67
10946;BME280;5525;42.648;23.368;2022-07-29T11:19:24;94685.00;;;43.65;18.07
10946;BME280;5525;42.648;23.368;2022-07-29T11:21:50;94686.06;;;44.31;17.77
10946;BME280;5525;42.648;23.368;2022-07-29T11:24:20;94689.66;;;44.00;17.44
10946;BME280;5525;42.648;23.368;2022-07-29T11:27:13;94677.25;;;43.66;17.82
10946;BME280;5525;42.648;23.368;2022-07-29T11:29:49;94669.09;;;42.95;18.50
10946;BME280;5525;42.648;23.368;2022-07-29T11:32:17;94670.44;;;43.87;17.67
10946;BME280;5525;42.648;23.368;2022-07-29T11:34:47;94674.81;;;43.14;18.26
10946;BME280;5525;42.648;23.368;2022-07-29T11:37:16;94673.88;;;41.63;19.31
10946;BME280;5525;42.648;23.368;2022-07-29T11:39:45;94671.97;;;40.68;19.93
10946;BME280;5525;42.648;23.368;2022-07-29T11:42:41;94649.81;;;41.29;19.93
10946;BME280;5525;42.648;23.368;2022-07-29T11:45:09;94649.88;;;41.24;19.60
10946;BME280;5525;42.648;23.368;2022-07-29T11:47:39;94659.63;;;41.74;19.03
10946;BME280;5525;42.648;23.368;2022-07-29T11:50:11;94644.53;;;39.91;20.68
10946;BME280;5525;42.648;23.368;2022-07-29T11:52:39;94612.63;;;37.31;23.24
10946;BME280;5525;42.648;23.368;2022-07-29T11:55:12;94638.66;;;36.40;24.71
10946;BME280;5525;42.648;23.368;2022-07-29T11:57:46;94649.38;;;36.56;24.21
10946;BME280;5525;42.648;23.368;2022-07-29T12:00:23;94647.91;;;36.80;24.08
10946;BME280;5525;42.648;23.368;2022-07-29T12:02:50;94624.56;;;37.46;23.63
10946;BME280;5525;42.648;23.368;2022-07-29T12:05:20;94632.19;;;36.74;23.73
10946;BME280;5525;42.648;23.368;2022-07-29T12:07:47;94618.13;;;35.99;24.90
10946;BME280;5525;42.648;23.368;2022-07-29T12:10:15;94634.91;;;36.43;25.33
10946;BME280;5525;42.648;23.368;2022-07-29T12:12:42;94627.53;;;36.31;25.21
10946;BME280;5525;42.648;23.368;2022-07-29T12:15:16;94637.03;;;35.99;24.98
10946;BME280;5525;42.648;23.368;2022-07-29T12:17:53;94593.31;;;35.48;25.62
10946;BME280;5525;42.648;23.368;2022-07-29T12:20:26;94622.81;;;35.29;25.72
10946;BME280;5525;42.648;23.368;2022-07-29T12:22:54;94603.97;;;34.63;26.42
10946;BME280;5525;42.648;23.368;2022-07-29T12:25:23;94601.19;;;34.39;27.11
10946;BME280;5525;42.648;23.368;2022-07-29T12:28:00;94619.53;;;34.40;26.56
10946;BME280;5525;42.648;23.368;2022-07-29T12:30:36;94620.59;;;33.86;27.18
10946;BME280;5525;42.648;23.368;2022-07-29T12:33:16;94619.78;;;34.04;27.36
10946;BME280;5525;42.648;23.368;2022-07-29T12:35:46;94624.94;;;34.20;27.45
10946;BME280;5525;42.648;23.368;2022-07-29T12:38:14;94612.53;;;33.88;27.85
10946;BME280;5525;42.648;23.368;2022-07-29T12:40:43;94606.03;;;34.06;28.09
10946;BME280;5525;42.648;23.368;2022-07-29T12:43:12;94591.53;;;34.07;27.90
10946;BME280;5525;42.648;23.368;2022-07-29T12:45:40;94613.19;;;33.74;27.87
10946;BME280;5525;42.648;23.368;2022-07-29T12:48:07;94595.28;;;33.81;27.84
10946;BME280;5525;42.648;23.368;2022-07-29T12:50:35;94611.13;;;33.93;28.50
10946;BME280;5525;42.648;23.368;2022-07-29T12:53:13;94595.31;;;34.04;27.96
10946;BME280;5525;42.648;23.368;2022-07-29T12:55:45;94603.06;;;34.09;27.57
10946;BME280;5525;42.648;23.368;2022-07-29T12:58:25;94576.66;;;34.01;27.95
10946;BME280;5525;42.648;23.368;2022-07-29T13:01:08;94596.41;;;34.07;27.47
10946;BME280;5525;42.648;23.368;2022-07-29T13:03:50;94592.69;;;33.68;27.84
10946;BME280;5525;42.648;23.368;2022-07-29T13:06:42;94577.63;;;33.57;28.07
10946;BME280;5525;42.648;23.368;2022-07-29T13:09:13;94577.72;;;33.39;28.33
10946;BME280;5525;42.648;23.368;2022-07-29T13:11:41;94586.72;;;33.34;28.53
10946;BME280;5525;42.648;23.368;2022-07-29T13:14:10;94588.63;;;33.69;28.63
10946;BME280;5525;42.648;23.368;2022-07-29T13:17:01;94558.78;;;33.66;28.30
10946;BME280;5525;42.648;23.368;2022-07-29T13:19:37;94572.13;;;34.04;28.14
10946;BME280;5525;42.648;23.368;2022-07-29T13:22:06;94564.09;;;33.64;28.52
10946;BME280;5525;42.648;23.368;2022-07-29T13:24:51;94574.47;;;33.73;29.27
10946;BME280;5525;42.648;23.368;2022-07-29T13:27:19;94579.16;;;33.67;28.51
10946;BME280;5525;42.648;23.368;2022-07-29T13:29:46;94548.13;;;33.05;29.38
10946;BME280;5525;42.648;23.368;2022-07-29T13:32:16;94575.59;;;33.16;29.07
10946;BME280;5525;42.648;23.368;2022-07-29T13:34:43;94567.13;;;33.34;29.00
10946;BME280;5525;42.648;23.368;2022-07-29T13:37:10;94570.06;;;32.98;28.80
10946;BME280;5525;42.648;23.368;2022-07-29T13:39:37;94563.88;;;32.66;29.31
10946;BME280;5525;42.648;23.368;2022-07-29T13:42:08;94569.75;;;32.78;29.30
10946;BME280;5525;42.648;23.368;2022-07-29T13:44:36;94524.59;;;32.52;29.04
10946;BME280;5525;42.648;23.368;2022-07-29T13:47:03;94558.22;;;32.85;29.40
10946;BME280;5525;42.648;23.368;2022-07-29T13:49:30;94520.38;;;32.65;29.08
10946;BME280;5525;42.648;23.368;2022-07-29T13:51:57;94561.94;;;33.09;29.30
10946;BME280;5525;42.648;23.368;2022-07-29T13:54:26;94568.97;;;32.77;28.92
10946;BME280;5525;42.648;23.368;2022-07-29T13:56:54;94561.88;;;32.40;29.40
10946;BME280;5525;42.648;23.368;2022-07-29T13:59:22;94531.72;;;32.17;29.81
10946;BME280;5525;42.648;23.368;2022-07-29T14:01:49;94562.63;;;32.22;30.58
10946;BME280;5525;42.648;23.368;2022-07-29T14:04:17;94552.38;;;32.19;30.30
10946;BME280;5525;42.648;23.368;2022-07-29T14:06:43;94558.47;;;32.36;30.07
10946;BME280;5525;42.648;23.368;2022-07-29T14:09:10;94541.66;;;32.27;30.52
10946;BME280;5525;42.648;23.368;2022-07-29T14:11:37;94570.25;;;32.40;30.43